createdAt,value
2022-10-22T00:59:25.257Z,13.27
2022-10-22T01:28:21.834Z,13.14
2022-10-22T01:57:13.554Z,13.08
2022-10-22T02:26:09.367Z,12.83
2022-10-22T02:54:56.959Z,12.98
2022-10-22T03:23:50.585Z,13.04
2022-10-22T03:52:39.974Z,13.07
2022-10-22T04:21:33.019Z,12.87
2022-10-22T04:50:16.785Z,12.58
2022-10-22T05:19:02.336Z,12.45
2022-10-22T05:47:45.922Z,12.46
2022-10-22T06:18:20.936Z,12.24
2022-10-22T06:47:07.859Z,11.9
2022-10-22T07:44:21.361Z,18.01
2022-10-22T08:12:57.310Z,16.8
2022-10-22T08:41:20.368Z,15.6
2022-10-22T09:09:43.605Z,15.57
2022-10-22T09:38:13.922Z,16.15
2022-10-22T10:06:43.803Z,16.85
2022-10-22T10:34:59.732Z,17.46
2022-10-22T11:03:28.054Z,17.97
2022-10-22T11:31:59.353Z,18.58
2022-10-22T12:00:31.954Z,18.78
2022-10-22T12:29:06.409Z,19.25
2022-10-22T12:57:41.112Z,19.44
2022-10-22T13:26:11.954Z,19.83
2022-10-22T13:54:41.758Z,19.65
2022-10-22T14:23:22.836Z,19.68
2022-10-22T14:51:50.322Z,19.44
2022-10-22T15:20:27.268Z,19.03
2022-10-22T15:48:55.920Z,18.01
2022-10-22T16:17:30.742Z,16.99
2022-10-22T16:46:02.002Z,16.03
2022-10-22T17:14:42.220Z,15.43
2022-10-22T17:43:11.720Z,14.72
2022-10-22T18:11:48.417Z,14.43
2022-10-22T19:08:28.491Z,15.09
2022-10-22T19:36:45.313Z,15.33
2022-10-22T20:05:21.022Z,15.06
2022-10-22T20:05:56.987Z,15.06
2022-10-22T20:34:11.533Z,14.12
2022-10-22T21:02:27.346Z,13.64
2022-10-22T21:31:03.990Z,13.42
2022-10-22T21:59:39.701Z,12.9
2022-10-22T22:28:23.489Z,12.59
2022-10-22T22:57:03.863Z,12.33
2022-10-22T23:25:37.545Z,11.97
2022-10-22T23:54:11.852Z,11.84
